Mossy Head, Florida
Current Conditions -  °F | °C
As of 8:15 PM on Thursday 18 Dec 2014 (Local Time) from K54J Reporting Station
Clear Clear  
Wind Chill: 52°   Ceiling: Unl
Heat Index: 52°   Visibility: 10mi
Dew Point: 45°   Wind: 0mph
Humidity: 77%   Direction: NA
Pressure: 30.15"   Gusts: NA
Location:  30.76°N, 86.32°W
Report Text: K54J 190215Z AUTO 00000KT 10SM CLR 11/07 A3015 RMK AO2 T01090071
Loading
Personal Weather Stations






























Interactive Weather Map New forecast layout! Learn more

10-Day Weather Forecast

Advertisements
Track Severe Weather on mobile